sensor_id;sensor_type;location;lat;lon;timestamp;P1;durP1;ratioP1;P2;durP2;ratioP2
62110;SDS011;48102;47.526;19.072;2023-06-22T03:42:26;6.18;;;4.07;;
62110;SDS011;48102;47.526;19.072;2023-06-22T03:45:29;8.82;;;4.82;;
62110;SDS011;48102;47.526;19.072;2023-06-22T03:48:32;6.07;;;3.85;;
62110;SDS011;48102;47.526;19.072;2023-06-22T03:54:37;4.75;;;3.20;;
62110;SDS011;48102;47.526;19.072;2023-06-22T03:57:40;10.23;;;3.87;;
62110;SDS011;48102;47.526;19.072;2023-06-22T04:00:43;8.70;;;4.07;;
62110;SDS011;48102;47.526;19.072;2023-06-22T04:06:51;3.65;;;3.03;;
62110;SDS011;48102;47.526;19.072;2023-06-22T04:09:54;9.00;;;3.22;;
62110;SDS011;48102;47.526;19.072;2023-06-22T04:12:56;6.10;;;3.47;;
62110;SDS011;48102;47.526;19.072;2023-06-22T04:15:59;5.85;;;3.90;;
62110;SDS011;48102;47.526;19.072;2023-06-22T04:19:03;5.07;;;3.22;;
62110;SDS011;48102;47.526;19.072;2023-06-22T04:22:06;7.10;;;3.92;;
62110;SDS011;48102;47.526;19.072;2023-06-22T04:25:09;9.32;;;3.25;;
62110;SDS011;48102;47.526;19.072;2023-06-22T04:31:14;6.80;;;3.22;;
62110;SDS011;48102;47.526;19.072;2023-06-22T04:34:17;6.12;;;3.78;;
62110;SDS011;48102;47.526;19.072;2023-06-22T04:37:20;4.72;;;3.30;;
62110;SDS011;48102;47.526;19.072;2023-06-22T04:40:25;4.45;;;3.25;;
62110;SDS011;48102;47.526;19.072;2023-06-22T04:43:28;6.65;;;3.30;;
62110;SDS011;48102;47.526;19.072;2023-06-22T04:46:33;5.78;;;3.20;;
62110;SDS011;48102;47.526;19.072;2023-06-22T04:49:40;9.93;;;3.28;;
62110;SDS011;48102;47.526;19.072;2023-06-22T04:52:45;7.87;;;2.97;;
62110;SDS011;48102;47.526;19.072;2023-06-22T04:55:48;4.35;;;3.20;;
62110;SDS011;48102;47.526;19.072;2023-06-22T04:58:51;5.30;;;3.20;;
62110;SDS011;48102;47.526;19.072;2023-06-22T05:04:57;5.55;;;3.00;;
62110;SDS011;48102;47.526;19.072;2023-06-22T05:08:02;9.20;;;3.30;;
62110;SDS011;48102;47.526;19.072;2023-06-22T05:11:05;5.78;;;2.72;;
62110;SDS011;48102;47.526;19.072;2023-06-22T05:17:10;4.75;;;2.87;;
62110;SDS011;48102;47.526;19.072;2023-06-22T05:20:17;10.52;;;3.55;;
62110;SDS011;48102;47.526;19.072;2023-06-22T05:23:21;7.57;;;3.05;;
62110;SDS011;48102;47.526;19.072;2023-06-22T05:26:24;8.02;;;2.87;;
62110;SDS011;48102;47.526;19.072;2023-06-22T05:29:27;6.40;;;2.90;;
62110;SDS011;48102;47.526;19.072;2023-06-22T05:32:29;7.20;;;3.42;;
62110;SDS011;48102;47.526;19.072;2023-06-22T05:35:32;13.10;;;3.25;;
62110;SDS011;48102;47.526;19.072;2023-06-22T05:38:35;5.93;;;2.65;;
62110;SDS011;48102;47.526;19.072;2023-06-22T05:41:39;8.80;;;3.15;;
62110;SDS011;48102;47.526;19.072;2023-06-22T05:44:42;8.27;;;3.45;;
62110;SDS011;48102;47.526;19.072;2023-06-22T05:47:45;6.97;;;3.12;;
62110;SDS011;48102;47.526;19.072;2023-06-22T05:53:51;7.32;;;2.83;;
62110;SDS011;48102;47.526;19.072;2023-06-22T05:59:56;6.62;;;3.10;;
62110;SDS011;48102;47.526;19.072;2023-06-22T06:06:06;5.82;;;2.92;;
62110;SDS011;48102;47.526;19.072;2023-06-22T06:09:09;4.43;;;2.53;;
62110;SDS011;48102;47.526;19.072;2023-06-22T06:12:14;5.40;;;2.65;;
62110;SDS011;48102;47.526;19.072;2023-06-22T06:15:16;9.35;;;2.53;;
62110;SDS011;48102;47.526;19.072;2023-06-22T06:18:19;6.25;;;2.28;;
62110;SDS011;48102;47.526;19.072;2023-06-22T06:21:22;5.93;;;2.72;;
62110;SDS011;48102;47.526;19.072;2023-06-22T06:24:25;4.03;;;2.17;;
62110;SDS011;48102;47.526;19.072;2023-06-22T06:27:28;6.95;;;2.35;;
62110;SDS011;48102;47.526;19.072;2023-06-22T06:30:32;8.48;;;3.17;;
62110;SDS011;48102;47.526;19.072;2023-06-22T06:33:35;6.45;;;2.42;;
62110;SDS011;48102;47.526;19.072;2023-06-22T06:36:38;9.80;;;2.70;;
62110;SDS011;48102;47.526;19.072;2023-06-22T06:42:47;5.57;;;2.12;;
62110;SDS011;48102;47.526;19.072;2023-06-22T06:45:51;3.85;;;2.10;;
62110;SDS011;48102;47.526;19.072;2023-06-22T06:48:54;5.93;;;2.15;;
62110;SDS011;48102;47.526;19.072;2023-06-22T06:51:56;8.80;;;1.87;;
62110;SDS011;48102;47.526;19.072;2023-06-22T06:54:59;8.57;;;2.53;;
62110;SDS011;48102;47.526;19.072;2023-06-22T06:58:02;5.32;;;1.60;;
62110;SDS011;48102;47.526;19.072;2023-06-22T07:01:10;8.75;;;2.08;;
62110;SDS011;48102;47.526;19.072;2023-06-22T07:04:15;3.95;;;1.87;;
62110;SDS011;48102;47.526;19.072;2023-06-22T07:07:18;7.93;;;1.80;;
62110;SDS011;48102;47.526;19.072;2023-06-22T07:10:21;6.55;;;1.55;;
62110;SDS011;48102;47.526;19.072;2023-06-22T07:13:25;5.90;;;2.10;;
62110;SDS011;48102;47.526;19.072;2023-06-22T07:16:28;4.12;;;2.03;;
62110;SDS011;48102;47.526;19.072;2023-06-22T07:19:32;4.15;;;1.67;;
62110;SDS011;48102;47.526;19.072;2023-06-22T07:22:36;3.90;;;2.20;;
62110;SDS011;48102;47.526;19.072;2023-06-22T07:25:39;6.85;;;1.92;;
62110;SDS011;48102;47.526;19.072;2023-06-22T07:28:42;3.80;;;1.98;;
62110;SDS011;48102;47.526;19.072;2023-06-22T07:31:45;6.22;;;2.15;;
62110;SDS011;48102;47.526;19.072;2023-06-22T07:34:47;7.03;;;2.10;;
62110;SDS011;48102;47.526;19.072;2023-06-22T07:37:50;9.90;;;2.78;;
62110;SDS011;48102;47.526;19.072;2023-06-22T07:40:53;7.05;;;2.08;;
62110;SDS011;48102;47.526;19.072;2023-06-22T07:43:56;5.95;;;1.73;;
62110;SDS011;48102;47.526;19.072;2023-06-22T07:46:58;7.95;;;2.15;;
62110;SDS011;48102;47.526;19.072;2023-06-22T07:50:01;3.83;;;1.87;;
62110;SDS011;48102;47.526;19.072;2023-06-22T07:53:05;4.60;;;1.75;;
62110;SDS011;48102;47.526;19.072;2023-06-22T07:56:10;5.50;;;2.03;;
62110;SDS011;48102;47.526;19.072;2023-06-22T07:59:13;7.47;;;2.10;;
62110;SDS011;48102;47.526;19.072;2023-06-22T08:02:16;3.47;;;1.92;;
62110;SDS011;48102;47.526;19.072;2023-06-22T08:05:19;6.78;;;2.25;;
62110;SDS011;48102;47.526;19.072;2023-06-22T08:08:36;7.72;;;2.37;;
62110;SDS011;48102;47.526;19.072;2023-06-22T08:11:39;7.68;;;2.45;;
62110;SDS011;48102;47.526;19.072;2023-06-22T08:14:42;7.28;;;2.30;;
62110;SDS011;48102;47.526;19.072;2023-06-22T08:17:47;4.28;;;2.03;;
62110;SDS011;48102;47.526;19.072;2023-06-22T08:20:50;3.97;;;1.95;;
62110;SDS011;48102;47.526;19.072;2023-06-22T08:23:53;9.20;;;2.28;;
62110;SDS011;48102;47.526;19.072;2023-06-22T08:26:55;5.30;;;2.85;;
62110;SDS011;48102;47.526;19.072;2023-06-22T08:29:59;7.57;;;2.72;;
62110;SDS011;48102;47.526;19.072;2023-06-22T08:33:02;6.70;;;2.20;;
62110;SDS011;48102;47.526;19.072;2023-06-22T08:36:05;5.20;;;2.10;;
62110;SDS011;48102;47.526;19.072;2023-06-22T08:39:10;5.03;;;2.67;;
62110;SDS011;48102;47.526;19.072;2023-06-22T08:42:13;6.93;;;2.70;;
62110;SDS011;48102;47.526;19.072;2023-06-22T08:45:16;6.07;;;3.00;;
62110;SDS011;48102;47.526;19.072;2023-06-22T08:48:19;5.12;;;3.05;;
62110;SDS011;48102;47.526;19.072;2023-06-22T08:51:21;4.65;;;2.70;;
62110;SDS011;48102;47.526;19.072;2023-06-22T08:54:25;7.25;;;3.22;;
62110;SDS011;48102;47.526;19.072;2023-06-22T08:57:27;7.50;;;3.47;;
62110;SDS011;48102;47.526;19.072;2023-06-22T09:00:31;6.03;;;3.28;;
62110;SDS011;48102;47.526;19.072;2023-06-22T09:03:37;5.62;;;3.45;;
62110;SDS011;48102;47.526;19.072;2023-06-22T09:06:42;4.22;;;3.22;;
62110;SDS011;48102;47.526;19.072;2023-06-22T09:09:47;7.82;;;3.75;;
62110;SDS011;48102;47.526;19.072;2023-06-22T09:12:50;6.75;;;3.78;;
62110;SDS011;48102;47.526;19.072;2023-06-22T09:15:53;7.95;;;3.58;;
62110;SDS011;48102;47.526;19.072;2023-06-22T09:18:56;5.25;;;3.60;;
62110;SDS011;48102;47.526;19.072;2023-06-22T09:21:59;7.95;;;4.00;;
62110;SDS011;48102;47.526;19.072;2023-06-22T09:25:03;7.35;;;4.07;;
62110;SDS011;48102;47.526;19.072;2023-06-22T09:28:09;6.53;;;4.12;;
62110;SDS011;48102;47.526;19.072;2023-06-22T09:31:11;7.12;;;4.53;;
62110;SDS011;48102;47.526;19.072;2023-06-22T09:34:14;4.65;;;4.10;;
62110;SDS011;48102;47.526;19.072;2023-06-22T09:37:17;6.62;;;4.25;;
62110;SDS011;48102;47.526;19.072;2023-06-22T09:40:20;5.82;;;4.12;;
62110;SDS011;48102;47.526;19.072;2023-06-22T09:43:23;7.72;;;4.43;;
62110;SDS011;48102;47.526;19.072;2023-06-22T09:46:25;4.87;;;4.40;;
62110;SDS011;48102;47.526;19.072;2023-06-22T09:49:28;4.78;;;4.12;;
62110;SDS011;48102;47.526;19.072;2023-06-22T09:52:48;7.00;;;4.10;;
62110;SDS011;48102;47.526;19.072;2023-06-22T09:55:57;7.95;;;4.45;;
62110;SDS011;48102;47.526;19.072;2023-06-22T09:59:00;7.40;;;4.68;;
62110;SDS011;48102;47.526;19.072;2023-06-22T10:02:19;5.87;;;4.40;;
62110;SDS011;48102;47.526;19.072;2023-06-22T10:05:25;11.60;;;4.32;;
62110;SDS011;48102;47.526;19.072;2023-06-22T10:08:28;4.90;;;4.10;;
62110;SDS011;48102;47.526;19.072;2023-06-22T10:11:31;6.62;;;4.32;;
62110;SDS011;48102;47.526;19.072;2023-06-22T10:14:37;6.22;;;4.50;;
62110;SDS011;48102;47.526;19.072;2023-06-22T10:17:40;7.65;;;4.03;;
62110;SDS011;48102;47.526;19.072;2023-06-22T10:20:43;7.30;;;4.65;;
62110;SDS011;48102;47.526;19.072;2023-06-22T10:23:46;6.72;;;4.45;;
62110;SDS011;48102;47.526;19.072;2023-06-22T10:26:49;5.60;;;4.87;;
62110;SDS011;48102;47.526;19.072;2023-06-22T10:29:52;9.43;;;5.28;;
62110;SDS011;48102;47.526;19.072;2023-06-22T10:32:56;8.50;;;4.87;;
62110;SDS011;48102;47.526;19.072;2023-06-22T10:35:59;8.82;;;4.82;;
62110;SDS011;48102;47.526;19.072;2023-06-22T10:39:02;5.75;;;4.87;;
62110;SDS011;48102;47.526;19.072;2023-06-22T10:42:05;5.32;;;4.43;;
62110;SDS011;48102;47.526;19.072;2023-06-22T10:45:08;7.40;;;4.90;;
62110;SDS011;48102;47.526;19.072;2023-06-22T10:48:12;4.80;;;4.40;;
62110;SDS011;48102;47.526;19.072;2023-06-22T10:51:14;6.03;;;4.37;;
62110;SDS011;48102;47.526;19.072;2023-06-22T10:54:17;7.85;;;4.53;;
62110;SDS011;48102;47.526;19.072;2023-06-22T10:57:21;6.40;;;5.00;;
62110;SDS011;48102;47.526;19.072;2023-06-22T11:00:24;7.03;;;4.82;;
62110;SDS011;48102;47.526;19.072;2023-06-22T11:03:27;8.40;;;5.50;;
62110;SDS011;48102;47.526;19.072;2023-06-22T11:06:30;7.57;;;5.37;;
62110;SDS011;48102;47.526;19.072;2023-06-22T11:09:33;7.03;;;5.18;;
62110;SDS011;48102;47.526;19.072;2023-06-22T11:12:36;11.20;;;5.43;;
62110;SDS011;48102;47.526;19.072;2023-06-22T11:15:39;6.80;;;4.78;;
62110;SDS011;48102;47.526;19.072;2023-06-22T11:18:42;6.62;;;4.45;;
62110;SDS011;48102;47.526;19.072;2023-06-22T11:21:45;7.15;;;4.85;;
62110;SDS011;48102;47.526;19.072;2023-06-22T11:24:48;10.93;;;5.35;;
62110;SDS011;48102;47.526;19.072;2023-06-22T11:27:51;6.47;;;5.07;;
62110;SDS011;48102;47.526;19.072;2023-06-22T11:30:56;9.63;;;5.37;;
62110;SDS011;48102;47.526;19.072;2023-06-22T11:34:01;6.70;;;4.70;;
62110;SDS011;48102;47.526;19.072;2023-06-22T11:37:04;6.72;;;4.68;;
62110;SDS011;48102;47.526;19.072;2023-06-22T11:40:07;9.63;;;5.07;;
62110;SDS011;48102;47.526;19.072;2023-06-22T11:43:11;7.12;;;5.45;;
62110;SDS011;48102;47.526;19.072;2023-06-22T11:46:14;7.32;;;4.97;;
62110;SDS011;48102;47.526;19.072;2023-06-22T11:49:17;6.00;;;4.78;;
62110;SDS011;48102;47.526;19.072;2023-06-22T11:52:20;7.87;;;4.72;;
62110;SDS011;48102;47.526;19.072;2023-06-22T11:55:24;5.57;;;4.55;;
62110;SDS011;48102;47.526;19.072;2023-06-22T11:58:26;10.30;;;5.22;;
62110;SDS011;48102;47.526;19.072;2023-06-22T12:01:29;10.18;;;5.07;;
62110;SDS011;48102;47.526;19.072;2023-06-22T12:04:32;5.65;;;4.35;;
62110;SDS011;48102;47.526;19.072;2023-06-22T12:07:35;8.05;;;4.40;;
62110;SDS011;48102;47.526;19.072;2023-06-22T12:10:38;5.85;;;4.15;;
62110;SDS011;48102;47.526;19.072;2023-06-22T12:13:40;6.18;;;4.12;;
62110;SDS011;48102;47.526;19.072;2023-06-22T12:16:43;5.85;;;4.43;;
62110;SDS011;48102;47.526;19.072;2023-06-22T12:19:46;6.55;;;4.20;;
62110;SDS011;48102;47.526;19.072;2023-06-22T12:22:49;7.35;;;4.10;;
62110;SDS011;48102;47.526;19.072;2023-06-22T12:25:53;7.25;;;4.57;;
62110;SDS011;48102;47.526;19.072;2023-06-22T12:28:56;6.85;;;4.40;;
62110;SDS011;48102;47.526;19.072;2023-06-22T12:31:59;6.80;;;4.35;;
62110;SDS011;48102;47.526;19.072;2023-06-22T12:35:02;7.07;;;5.07;;
62110;SDS011;48102;47.526;19.072;2023-06-22T12:38:05;4.75;;;4.25;;
62110;SDS011;48102;47.526;19.072;2023-06-22T12:41:10;6.03;;;4.80;;
62110;SDS011;48102;47.526;19.072;2023-06-22T12:44:13;4.80;;;4.00;;
62110;SDS011;48102;47.526;19.072;2023-06-22T12:47:16;6.53;;;4.32;;
62110;SDS011;48102;47.526;19.072;2023-06-22T12:50:19;5.55;;;3.80;;
62110;SDS011;48102;47.526;19.072;2023-06-22T12:53:22;7.15;;;4.50;;
62110;SDS011;48102;47.526;19.072;2023-06-22T12:56:26;5.72;;;4.53;;
62110;SDS011;48102;47.526;19.072;2023-06-22T12:59:28;5.20;;;3.65;;
62110;SDS011;48102;47.526;19.072;2023-06-22T13:02:31;5.93;;;3.97;;
62110;SDS011;48102;47.526;19.072;2023-06-22T13:05:34;9.18;;;4.47;;
62110;SDS011;48102;47.526;19.072;2023-06-22T13:08:38;4.10;;;3.70;;
62110;SDS011;48102;47.526;19.072;2023-06-22T13:11:45;6.03;;;4.75;;
62110;SDS011;48102;47.526;19.072;2023-06-22T13:14:48;5.60;;;4.20;;
62110;SDS011;48102;47.526;19.072;2023-06-22T13:17:51;3.97;;;3.53;;
62110;SDS011;48102;47.526;19.072;2023-06-22T13:20:54;6.07;;;3.95;;
62110;SDS011;48102;47.526;19.072;2023-06-22T13:23:57;6.43;;;3.58;;
62110;SDS011;48102;47.526;19.072;2023-06-22T13:27:00;6.12;;;3.47;;
62110;SDS011;48102;47.526;19.072;2023-06-22T13:30:04;5.55;;;3.90;;
62110;SDS011;48102;47.526;19.072;2023-06-22T13:33:07;8.15;;;3.53;;
62110;SDS011;48102;47.526;19.072;2023-06-22T13:36:11;7.15;;;3.72;;
62110;SDS011;48102;47.526;19.072;2023-06-22T13:39:14;5.78;;;3.45;;
62110;SDS011;48102;47.526;19.072;2023-06-22T13:42:17;5.55;;;4.00;;
62110;SDS011;48102;47.526;19.072;2023-06-22T13:45:19;4.07;;;3.78;;
62110;SDS011;48102;47.526;19.072;2023-06-22T13:48:22;4.05;;;3.60;;
62110;SDS011;48102;47.526;19.072;2023-06-22T13:51:28;3.92;;;3.50;;
62110;SDS011;48102;47.526;19.072;2023-06-22T13:54:31;4.35;;;3.95;;
62110;SDS011;48102;47.526;19.072;2023-06-22T13:57:37;5.07;;;3.67;;
62110;SDS011;48102;47.526;19.072;2023-06-22T14:00:40;4.32;;;3.92;;
62110;SDS011;48102;47.526;19.072;2023-06-22T14:03:43;4.57;;;3.83;;
62110;SDS011;48102;47.526;19.072;2023-06-22T14:06:47;5.85;;;3.65;;
62110;SDS011;48102;47.526;19.072;2023-06-22T14:09:50;5.25;;;3.40;;
62110;SDS011;48102;47.526;19.072;2023-06-22T14:12:53;6.45;;;3.65;;
62110;SDS011;48102;47.526;19.072;2023-06-22T14:15:58;8.75;;;3.78;;
62110;SDS011;48102;47.526;19.072;2023-06-22T14:19:00;5.10;;;3.62;;
62110;SDS011;48102;47.526;19.072;2023-06-22T14:22:06;6.10;;;4.22;;
62110;SDS011;48102;47.526;19.072;2023-06-22T14:25:09;5.22;;;3.80;;
62110;SDS011;48102;47.526;19.072;2023-06-22T14:28:12;6.40;;;3.72;;
62110;SDS011;48102;47.526;19.072;2023-06-22T14:31:14;5.70;;;3.70;;
62110;SDS011;48102;47.526;19.072;2023-06-22T14:34:17;5.70;;;3.60;;
62110;SDS011;48102;47.526;19.072;2023-06-22T14:37:20;4.25;;;3.75;;
62110;SDS011;48102;47.526;19.072;2023-06-22T14:40:23;7.28;;;4.28;;
62110;SDS011;48102;47.526;19.072;2023-06-22T14:43:28;6.40;;;4.03;;
62110;SDS011;48102;47.526;19.072;2023-06-22T14:46:31;4.68;;;4.20;;
62110;SDS011;48102;47.526;19.072;2023-06-22T14:49:34;6.70;;;3.90;;
62110;SDS011;48102;47.526;19.072;2023-06-22T14:52:38;5.12;;;3.97;;
62110;SDS011;48102;47.526;19.072;2023-06-22T14:55:41;8.98;;;4.22;;
62110;SDS011;48102;47.526;19.072;2023-06-22T14:58:44;7.40;;;3.83;;
62110;SDS011;48102;47.526;19.072;2023-06-22T15:01:49;4.18;;;3.78;;
62110;SDS011;48102;47.526;19.072;2023-06-22T15:04:53;5.60;;;4.10;;
62110;SDS011;48102;47.526;19.072;2023-06-22T15:07:56;4.22;;;3.67;;
62110;SDS011;48102;47.526;19.072;2023-06-22T15:10:59;4.90;;;4.12;;
62110;SDS011;48102;47.526;19.072;2023-06-22T15:14:03;6.45;;;3.97;;
62110;SDS011;48102;47.526;19.072;2023-06-22T15:17:06;4.45;;;4.05;;
62110;SDS011;48102;47.526;19.072;2023-06-22T15:20:11;3.75;;;3.45;;
62110;SDS011;48102;47.526;19.072;2023-06-22T15:23:14;6.80;;;3.60;;
